Macks Creek, Missouri
Current Conditions -  °F | °C
As of 3:35 AM on Thursday 27 Nov 2014 (Local Time) from KH21 Reporting Station
Overcast Overcast  
Wind Chill: 23°   Ceiling: 1000
Heat Index: 32°   Visibility: 7mi
Dew Point: 28°   Wind: 13mph
Humidity: 87%   Direction: 300°WNW
Pressure: 30.41"   Gusts: 18mph
Location:  37.97°N, 92.97°W
Report Text: KH21 270935Z AUTO 30011G16KT 7SM OVC010 00/M02 A3041 RMK AO2
Loading
Personal Weather Stations






























Interactive Weather Map New forecast layout! Learn more

10-Day Weather Forecast

Advertisements
Track Severe Weather on mobile